KCLL

Easterwood Field Airport

College Station, Texas, USA
METAR KCLL 192253Z 15010KT 10SM FEW090 37/19 A2981 RMK AO2 SLP087 T03720194
Observed Flight Rules
Aug-19 @ 22:53 UTC (16 minutes ago) Visual Flight Rules
Wind Visibility Clouds
150° at 10 knots 10 miles
  • Few at 9,000' AGL
Temperatures Readings
Current 37°C / 99°F
Dewpoint 19°C / 66°F
Humidity 35%
Altimeter 29.81" Hg
Pressure 1008.7 hPa
Elevation 96
METAR KCLL 192253Z 15010KT 10SM FEW090 37/19 A2981 RMK AO2 SLP087 T03720194
Observed Flight Rules
Aug-19 @ 22:53 UTC
(16 minutes ago)
VFR
Wind Visibility
150° at 10 knots 10 miles
Clouds
  • Few at 9,000' AGL
Temperature Dewpoint
37°C / 99°F 19°C / 66°F
Humidity Altimeter Pressure
35% 29.81" Hg 1008.7 hPa